createdAt,value
2022-08-04T00:00:08.034Z,99641.81
2022-08-04T00:02:49.304Z,99671.38
2022-08-04T00:05:30.469Z,99676.53
2022-08-04T00:08:08.440Z,99673.28
2022-08-04T00:10:40.503Z,99579.50
2022-08-04T00:13:09.633Z,99673.28
2022-08-04T00:15:39.199Z,99680.88
2022-08-04T00:18:10.359Z,99647.22
2022-08-04T00:20:41.204Z,99546.06
2022-08-04T00:23:10.311Z,99614.19
2022-08-04T00:25:42.425Z,99634.84
2022-08-04T00:28:10.548Z,99634.47
2022-08-04T00:30:39.015Z,99671.81
2022-08-04T00:33:08.433Z,99643.31
2022-08-04T00:35:37.429Z,99605.91
2022-08-04T00:38:06.316Z,99597.72
2022-08-04T00:40:43.612Z,99630.97
2022-08-04T00:43:20.113Z,99673.03
2022-08-04T00:46:18.826Z,99602.78
2022-08-04T00:48:58.249Z,99664.63
2022-08-04T00:51:38.784Z,99667.91
2022-08-04T00:54:19.240Z,99697.06
2022-08-04T00:57:33.625Z,99700.16
2022-08-04T01:00:10.979Z,99575.69
2022-08-04T01:02:50.248Z,99622.72
2022-08-04T01:05:26.988Z,99486.13
2022-08-04T01:08:11.282Z,99703.19
2022-08-04T01:10:56.626Z,99598.91
2022-08-04T01:13:51.980Z,99673.88
2022-08-04T01:16:26.492Z,99673.19
2022-08-04T01:19:01.223Z,99653.50
2022-08-04T01:22:01.560Z,99696.63
2022-08-04T01:25:08.292Z,99702.56
2022-08-04T01:28:04.758Z,99617.41
2022-08-04T01:30:40.655Z,99602.84
2022-08-04T01:33:14.110Z,99606.34
2022-08-04T01:35:49.020Z,99696.94
2022-08-04T01:38:21.431Z,99601.91
2022-08-04T01:40:54.345Z,99657.41
2022-08-04T01:43:22.867Z,99702.69
2022-08-04T01:45:58.071Z,99609.69
2022-08-04T01:48:27.382Z,99677.06
2022-08-04T01:50:58.878Z,99616.44
2022-08-04T01:53:32.015Z,99676.78
2022-08-04T01:56:01.929Z,99651.75
2022-08-04T01:58:31.609Z,99602.09
2022-08-04T02:01:08.134Z,99682.03
2022-08-04T02:04:19.520Z,99685.06
2022-08-04T02:06:33.540Z,99688.75
2022-08-04T02:09:10.796Z,99580.50
2022-08-04T02:11:42.555Z,99699.00
2022-08-04T02:14:36.457Z,99588.16
2022-08-04T02:17:11.603Z,99603.00
2022-08-04T02:19:54.899Z,99703.09
2022-08-04T02:22:23.927Z,99702.81
2022-08-04T02:24:59.427Z,99704.19
2022-08-04T02:27:59.356Z,99588.31
2022-08-04T02:30:32.937Z,99659.84
2022-08-04T02:33:05.664Z,99609.69
2022-08-04T02:35:37.798Z,99713.63
2022-08-04T02:38:14.218Z,99641.38
2022-08-04T02:40:44.380Z,99710.25
2022-08-04T02:43:14.204Z,99606.50
2022-08-04T02:45:44.239Z,99654.28
2022-08-04T02:48:29.934Z,99656.59
2022-08-04T02:51:02.378Z,99682.56
2022-08-04T02:53:32.630Z,99701.72
2022-08-04T02:56:03.782Z,99606.50
2022-08-04T02:58:36.137Z,99595.56
2022-08-04T03:01:04.388Z,99704.78
2022-08-04T03:03:40.920Z,99671.34
2022-08-04T03:06:39.060Z,99705.97
2022-08-04T03:09:28.296Z,99619.72
2022-08-04T03:12:29.322Z,99715.59
2022-08-04T03:15:20.106Z,99712.25
2022-08-04T03:18:30.685Z,99715.09
2022-08-04T03:21:35.709Z,99698.06
2022-08-04T03:24:33.788Z,99718.09
2022-08-04T03:27:37.712Z,99614.41
2022-08-04T03:30:12.873Z,99681.69
2022-08-04T03:33:14.173Z,99694.66
2022-08-04T03:36:31.935Z,99719.72
2022-08-04T03:39:33.129Z,99717.97
2022-08-04T03:42:28.752Z,99683.44
2022-08-04T03:45:25.049Z,99618.38
2022-08-04T03:48:08.644Z,99689.50
2022-08-04T03:51:35.594Z,99721.56
2022-08-04T03:54:35.446Z,99635.00
2022-08-04T03:57:32.962Z,99718.00
2022-08-04T04:00:10.118Z,99717.88
2022-08-04T04:03:30.682Z,99670.50
2022-08-04T04:06:21.451Z,99720.94
2022-08-04T04:09:16.265Z,99641.09
2022-08-04T04:12:15.968Z,99675.28
2022-08-04T04:14:56.560Z,99616.97
2022-08-04T04:18:12.247Z,99725.06
2022-08-04T04:20:59.219Z,99729.03
2022-08-04T04:23:49.916Z,99619.97
2022-08-04T04:26:38.822Z,99546.56
2022-08-04T04:29:31.376Z,99711.84
2022-08-04T04:32:14.742Z,99742.81
2022-08-04T04:34:58.388Z,99627.97
2022-08-04T04:37:52.514Z,99741.28
2022-08-04T04:40:34.157Z,99689.50
2022-08-04T04:43:17.711Z,99741.28
2022-08-04T04:45:57.228Z,99744.78
2022-08-04T04:48:35.810Z,99731.31
2022-08-04T04:51:15.384Z,99703.31
2022-08-04T04:53:59.937Z,99711.53
2022-08-04T04:56:36.380Z,99639.69
2022-08-04T04:59:10.185Z,99734.97
2022-08-04T05:01:56.646Z,99644.72
2022-08-04T05:05:18.037Z,99735.78
2022-08-04T05:08:42.774Z,99601.09
2022-08-04T05:11:05.801Z,99707.72
2022-08-04T05:14:35.370Z,99677.44
2022-08-04T05:16:28.538Z,99663.09
2022-08-04T05:19:12.855Z,99661.22
2022-08-04T05:21:46.714Z,99752.28
2022-08-04T05:24:18.966Z,99756.00
2022-08-04T05:26:51.301Z,99761.38
2022-08-04T05:29:30.881Z,99691.59
2022-08-04T05:32:03.002Z,99752.88
2022-08-04T05:34:36.855Z,99730.72
2022-08-04T05:37:10.425Z,99728.47
2022-08-04T05:39:47.200Z,99767.31
2022-08-04T05:42:16.439Z,99646.56
2022-08-04T05:44:50.422Z,99580.53
2022-08-04T05:47:21.640Z,99739.09
2022-08-04T05:49:55.548Z,99750.59
2022-08-04T05:52:30.259Z,99753.91
2022-08-04T05:55:00.516Z,99762.81
2022-08-04T05:57:29.684Z,99758.06
2022-08-04T06:00:14.622Z,99752.09
2022-08-04T06:02:51.274Z,99684.72
2022-08-04T06:05:21.242Z,99758.09
2022-08-04T06:08:12.419Z,99735.31
2022-08-04T06:10:41.074Z,99746.38
2022-08-04T06:13:48.650Z,99646.34
2022-08-04T06:16:04.076Z,99756.22
2022-08-04T06:20:02.665Z,99736.72
2022-08-04T06:21:28.452Z,99701.63
2022-08-04T06:24:04.338Z,99759.94
2022-08-04T06:26:35.992Z,99741.03
2022-08-04T06:29:05.605Z,99741.06
2022-08-04T06:32:30.810Z,99749.25
2022-08-04T06:34:36.169Z,99742.47
2022-08-04T06:37:06.795Z,99741.00
2022-08-04T06:39:35.556Z,99741.84
2022-08-04T06:42:21.506Z,99740.75
2022-08-04T06:44:52.422Z,99737.38
2022-08-04T06:47:22.568Z,99756.69
2022-08-04T06:51:24.427Z,99751.09
2022-08-04T06:52:46.257Z,99748.38
2022-08-04T06:55:14.825Z,99742.31
2022-08-04T06:57:45.272Z,99694.88
2022-08-04T07:00:15.652Z,99742.09
2022-08-04T07:02:47.313Z,99734.22
2022-08-04T07:05:16.444Z,99733.69
2022-08-04T07:07:56.816Z,99758.16
2022-08-04T07:10:28.567Z,99723.28
2022-08-04T07:12:57.956Z,99750.06
2022-08-04T07:15:26.948Z,99747.03
2022-08-04T07:18:00.359Z,99740.38
2022-08-04T07:20:34.576Z,99749.16
2022-08-04T07:23:07.641Z,99743.31
2022-08-04T07:26:11.266Z,99724.94
2022-08-04T07:28:27.917Z,99745.16
2022-08-04T07:30:57.480Z,99738.25
2022-08-04T07:33:26.253Z,99740.13
2022-08-04T07:36:10.759Z,99738.41
2022-08-04T07:38:51.255Z,99733.59
2022-08-04T07:41:39.363Z,99742.50
2022-08-04T07:44:09.055Z,99730.50
2022-08-04T07:46:37.738Z,99678.53
2022-08-04T07:49:06.451Z,99743.66
2022-08-04T07:51:36.398Z,99733.41
2022-08-04T07:54:07.855Z,99711.63
2022-08-04T07:56:38.545Z,99742.31
2022-08-04T07:59:06.881Z,99738.81
2022-08-04T08:01:36.500Z,99719.56
2022-08-04T08:04:08.110Z,99736.22
2022-08-04T08:06:42.589Z,99725.56
2022-08-04T08:09:14.728Z,99722.63
2022-08-04T08:12:35.374Z,99723.50
2022-08-04T08:14:32.557Z,99713.22
2022-08-04T08:17:02.647Z,99718.41
2022-08-04T08:19:31.585Z,99704.84
2022-08-04T08:22:01.236Z,99713.97
2022-08-04T08:24:32.454Z,99715.72
2022-08-04T08:27:01.193Z,99704.59
2022-08-04T08:29:30.634Z,99701.81
2022-08-04T08:32:02.878Z,99713.44
2022-08-04T08:34:35.345Z,99683.94
2022-08-04T08:37:11.185Z,99714.84
2022-08-04T08:39:44.435Z,99713.06
2022-08-04T08:42:42.570Z,99706.94
2022-08-04T08:45:32.424Z,99703.75
2022-08-04T08:48:17.217Z,99709.75
2022-08-04T08:51:09.435Z,99700.53
2022-08-04T08:53:52.227Z,99703.97
2022-08-04T08:56:32.938Z,99697.22
2022-08-04T08:59:27.371Z,99700.19
2022-08-04T09:02:11.767Z,99699.75
2022-08-04T09:04:59.535Z,99675.63
2022-08-04T09:07:44.716Z,99678.50
2022-08-04T09:10:20.177Z,99620.34
2022-08-04T09:12:55.690Z,99654.91
2022-08-04T09:15:30.959Z,99597.75
2022-08-04T09:18:06.525Z,99672.03
2022-08-04T09:20:41.150Z,99673.25
2022-08-04T09:23:18.880Z,99663.16
2022-08-04T09:25:54.531Z,99671.06
2022-08-04T09:28:52.307Z,99662.19
2022-08-04T09:31:18.472Z,99669.22
2022-08-04T09:33:54.747Z,99668.50
2022-08-04T09:36:33.277Z,99655.31
2022-08-04T09:39:09.611Z,99666.97
2022-08-04T09:41:49.054Z,99664.72
2022-08-04T09:44:50.053Z,99655.53
2022-08-04T09:47:26.124Z,99659.78
2022-08-04T09:50:17.837Z,99660.84
2022-08-04T09:52:56.913Z,99653.91
2022-08-04T09:55:54.798Z,99651.72
2022-08-04T09:58:41.917Z,99656.19
2022-08-04T10:01:19.858Z,99652.22
2022-08-04T10:03:53.377Z,99651.50
2022-08-04T10:06:44.068Z,99649.13
2022-08-04T10:09:34.172Z,99640.03
2022-08-04T10:12:18.999Z,99647.19
2022-08-04T10:14:54.219Z,99646.75
2022-08-04T10:17:36.150Z,99643.75
2022-08-04T10:20:10.984Z,99631.34
2022-08-04T10:23:09.290Z,99631.13
2022-08-04T10:26:05.508Z,99628.22
2022-08-04T10:28:43.405Z,99634.06
2022-08-04T10:31:20.294Z,99619.13
2022-08-04T10:33:55.992Z,99630.09
2022-08-04T10:36:29.710Z,99618.03
2022-08-04T10:39:07.073Z,99619.97
2022-08-04T10:41:48.429Z,99614.25
2022-08-04T10:44:24.734Z,99599.03
2022-08-04T10:46:56.953Z,99551.19
2022-08-04T10:49:36.880Z,99611.81
2022-08-04T10:52:12.997Z,99604.00
2022-08-04T10:54:49.732Z,99580.09
2022-08-04T10:57:27.250Z,99580.09
2022-08-04T11:00:04.781Z,99576.69
2022-08-04T11:02:39.273Z,99601.00
2022-08-04T11:05:18.656Z,99601.13
2022-08-04T11:07:51.267Z,99597.34
2022-08-04T11:10:22.730Z,99589.91
2022-08-04T11:13:02.056Z,99586.19
2022-08-04T11:15:37.811Z,99585.75
2022-08-04T11:18:16.435Z,99549.97
2022-08-04T11:20:54.488Z,99577.09
2022-08-04T11:23:28.309Z,99551.38
2022-08-04T11:26:01.207Z,99574.78
2022-08-04T11:28:40.386Z,99577.53
2022-08-04T11:31:12.560Z,99568.22
2022-08-04T11:33:48.681Z,99544.13
2022-08-04T11:36:23.914Z,99559.66
2022-08-04T11:39:00.646Z,99570.22
2022-08-04T11:41:40.877Z,99543.97
2022-08-04T11:44:18.194Z,99479.47
2022-08-04T11:46:53.200Z,99505.94
2022-08-04T11:49:30.646Z,99520.84
2022-08-04T11:52:02.360Z,99517.44
2022-08-04T11:54:33.567Z,99423.59
2022-08-04T11:57:02.943Z,99518.56
2022-08-04T11:59:33.114Z,99520.56
2022-08-04T12:02:21.282Z,99514.44
2022-08-04T12:04:57.714Z,99533.50
2022-08-04T12:07:41.177Z,99532.97
2022-08-04T12:10:40.284Z,99536.56
2022-08-04T12:13:26.000Z,99526.31
2022-08-04T12:16:04.413Z,99519.59
2022-08-04T12:18:40.444Z,99513.16
2022-08-04T12:21:15.019Z,99514.22
2022-08-04T12:23:46.389Z,99521.28
2022-08-04T12:26:22.238Z,99496.91
2022-08-04T12:29:09.523Z,99515.00
2022-08-04T12:31:46.379Z,99510.41
2022-08-04T12:34:18.478Z,99506.59
2022-08-04T12:36:55.799Z,99493.56
2022-08-04T12:39:28.445Z,99502.97
2022-08-04T12:42:04.798Z,99501.91
2022-08-04T12:44:37.828Z,99457.84
2022-08-04T12:47:28.348Z,99496.53
2022-08-04T12:50:03.832Z,99490.84
2022-08-04T12:53:01.686Z,99473.09
2022-08-04T12:55:29.334Z,99480.34
2022-08-04T12:57:58.677Z,99491.72
2022-08-04T13:00:33.219Z,99490.34
2022-08-04T13:03:10.498Z,99485.88
2022-08-04T13:05:41.905Z,99487.94
2022-08-04T13:08:12.435Z,99465.03
2022-08-04T13:10:45.158Z,99481.09
2022-08-04T13:13:17.212Z,99485.28
2022-08-04T13:15:57.100Z,99489.03
2022-08-04T13:18:29.957Z,99483.38
2022-08-04T13:21:19.495Z,99475.81
2022-08-04T13:24:10.002Z,99446.06
2022-08-04T13:26:54.816Z,99321.88
2022-08-04T13:29:59.201Z,99439.56
2022-08-04T13:32:23.498Z,99465.25
2022-08-04T13:34:55.126Z,99454.41
2022-08-04T13:37:27.095Z,99362.72
2022-08-04T13:39:56.976Z,99455.78
2022-08-04T13:42:28.473Z,99448.22
2022-08-04T13:45:01.296Z,99480.41
2022-08-04T13:47:34.180Z,99473.06
2022-08-04T13:50:13.344Z,99477.13
2022-08-04T13:52:42.287Z,99463.88
2022-08-04T13:55:20.250Z,99454.34
2022-08-04T13:57:54.690Z,99464.06
2022-08-04T14:00:29.865Z,99450.75
2022-08-04T14:03:19.115Z,99459.28
2022-08-04T14:06:07.999Z,99457.28
2022-08-04T14:08:44.252Z,99451.53
2022-08-04T14:12:06.631Z,99450.13
2022-08-04T14:14:02.334Z,99423.66
2022-08-04T14:16:30.426Z,99446.38
2022-08-04T14:19:02.706Z,99404.47
2022-08-04T14:21:38.208Z,99433.72
2022-08-04T14:24:06.923Z,99453.69
2022-08-04T14:26:37.118Z,99391.59
2022-08-04T14:29:28.162Z,99414.84
2022-08-04T14:32:03.094Z,99450.13
2022-08-04T14:34:33.481Z,99418.75
2022-08-04T14:37:17.663Z,99430.75
2022-08-04T14:40:19.186Z,99386.50
2022-08-04T14:42:54.474Z,99450.31
2022-08-04T14:45:34.036Z,99396.25
2022-08-04T14:48:03.096Z,99444.63
2022-08-04T14:50:36.241Z,99439.28
2022-08-04T14:53:06.781Z,99436.84
2022-08-04T14:55:35.247Z,99419.78
2022-08-04T14:58:34.692Z,99418.44
2022-08-04T15:00:55.763Z,99445.50
2022-08-04T15:03:24.587Z,99441.44
2022-08-04T15:06:00.034Z,99424.94
2022-08-04T15:08:32.596Z,99442.00
2022-08-04T15:11:02.998Z,99441.16
2022-08-04T15:13:33.347Z,99435.22
2022-08-04T15:16:08.171Z,99417.09
2022-08-04T15:18:39.097Z,99438.19
2022-08-04T15:21:08.704Z,99430.63
2022-08-04T15:23:39.801Z,99317.03
2022-08-04T15:26:11.587Z,99436.56
2022-08-04T15:28:42.515Z,99436.56
2022-08-04T15:32:07.044Z,99372.47
2022-08-04T15:34:01.331Z,99354.63
2022-08-04T15:36:39.835Z,99335.16
2022-08-04T15:39:19.729Z,99425.50
2022-08-04T15:41:57.664Z,99434.97
2022-08-04T15:44:58.541Z,99436.59
2022-08-04T15:47:28.390Z,99371.38
2022-08-04T15:50:08.734Z,99364.09
2022-08-04T15:53:10.761Z,99420.59
2022-08-04T15:55:43.124Z,99434.44
2022-08-04T15:58:14.097Z,99434.69
2022-08-04T16:01:16.608Z,99436.31
2022-08-04T16:03:59.131Z,99403.28
2022-08-04T16:06:45.282Z,99429.78
2022-08-04T16:09:45.239Z,99434.66
2022-08-04T16:12:57.565Z,99434.16
2022-08-04T16:15:39.521Z,99386.25
2022-08-04T16:18:13.974Z,99432.81
2022-08-04T16:20:58.084Z,99433.34
2022-08-04T16:24:06.468Z,99427.66
2022-08-04T16:26:54.975Z,99428.19
2022-08-04T16:29:40.278Z,99425.50
2022-08-04T16:32:22.631Z,99360.56
2022-08-04T16:35:00.299Z,99414.69
2022-08-04T16:37:35.033Z,99434.41
2022-08-04T16:40:38.568Z,99434.72
2022-08-04T16:43:09.853Z,99355.41
2022-08-04T16:45:49.586Z,99422.22
2022-08-04T16:48:18.756Z,99344.78
2022-08-04T16:50:49.575Z,99446.19
2022-08-04T16:54:03.930Z,99361.19
2022-08-04T16:56:10.260Z,99425.84
2022-08-04T16:58:53.659Z,99401.84
2022-08-04T17:01:32.945Z,99432.13
2022-08-04T17:04:05.435Z,99356.75
2022-08-04T17:06:36.705Z,99456.75
2022-08-04T17:09:08.929Z,99430.69
2022-08-04T17:11:36.921Z,99414.47
2022-08-04T17:14:06.435Z,99466.50
2022-08-04T17:16:37.140Z,99370.84
2022-08-04T17:19:06.451Z,99390.81
2022-08-04T17:21:36.734Z,99421.72
2022-08-04T17:24:14.288Z,99350.25
2022-08-04T17:26:53.770Z,99455.53
2022-08-04T17:29:43.078Z,99386.97
2022-08-04T17:32:18.750Z,99390.16
2022-08-04T17:34:50.782Z,99418.31
2022-08-04T17:40:10.787Z,99465.38
2022-08-04T17:42:41.370Z,99427.97
2022-08-04T17:48:00.503Z,99483.38
2022-08-04T17:50:35.758Z,99417.75
2022-08-04T17:53:11.597Z,99483.59
2022-08-04T17:55:44.536Z,99450.13
2022-08-04T17:58:21.106Z,99483.53
2022-08-04T18:00:51.283Z,99491.94
2022-08-04T18:03:24.879Z,99451.38
2022-08-04T18:06:03.362Z,99415.28
2022-08-04T18:11:22.192Z,99495.06
2022-08-04T18:13:57.002Z,99503.31
2022-08-04T18:16:25.343Z,99499.19
2022-08-04T18:19:12.186Z,99515.09
2022-08-04T18:21:46.125Z,99491.13
2022-08-04T18:24:34.017Z,99510.41
2022-08-04T18:27:20.362Z,99492.31
2022-08-04T18:30:15.390Z,99449.09
2022-08-04T18:32:36.780Z,99503.84
2022-08-04T18:35:19.642Z,99529.53
2022-08-04T18:38:06.747Z,99440.19
2022-08-04T18:40:54.212Z,99525.38
2022-08-04T18:43:28.716Z,99516.59
2022-08-04T18:45:59.452Z,99541.56
2022-08-04T18:51:22.930Z,99536.84
2022-08-04T18:53:54.984Z,99547.31
2022-08-04T18:56:29.215Z,99439.66
2022-08-04T18:59:03.049Z,99484.09
2022-08-04T19:02:13.434Z,99557.94
2022-08-04T19:04:33.743Z,99489.00
2022-08-04T19:07:24.479Z,99553.72
2022-08-04T19:09:58.034Z,99565.41
2022-08-04T19:12:28.511Z,99565.00
2022-08-04T19:15:08.864Z,99479.47
2022-08-04T19:17:55.188Z,99552.53
2022-08-04T19:20:27.145Z,99549.00
2022-08-04T19:24:26.897Z,99570.81
2022-08-04T19:25:58.933Z,99486.09
2022-08-04T19:28:35.240Z,99476.34
2022-08-04T19:31:07.644Z,99579.03
2022-08-04T19:33:58.532Z,99578.69
2022-08-04T19:36:28.763Z,99555.91
2022-08-04T19:38:58.163Z,99491.34
2022-08-04T19:41:26.968Z,99532.97
2022-08-04T19:43:56.858Z,99582.22
2022-08-04T19:46:28.725Z,99463.94
2022-08-04T19:48:58.954Z,99578.03
2022-08-04T19:51:29.590Z,99534.19
2022-08-04T19:54:02.368Z,99588.19
2022-08-04T19:56:40.739Z,99545.31
2022-08-04T19:59:10.156Z,99506.66
2022-08-04T20:01:45.176Z,99544.94
2022-08-04T20:04:14.598Z,99588.34
2022-08-04T20:06:43.028Z,99584.59
2022-08-04T20:09:24.786Z,99507.63
2022-08-04T20:11:55.643Z,99518.38
2022-08-04T20:14:32.184Z,99500.91
2022-08-04T20:17:10.319Z,99478.59
2022-08-04T20:19:38.854Z,99502.38
2022-08-04T20:22:08.581Z,99544.41
2022-08-04T20:25:01.077Z,99498.06
2022-08-04T20:28:00.272Z,99543.38
2022-08-04T20:30:29.242Z,99523.06
2022-08-04T20:33:00.863Z,99405.66
2022-08-04T20:35:29.355Z,99525.94
2022-08-04T20:38:00.787Z,99609.44
2022-08-04T20:40:29.991Z,99612.69
2022-08-04T20:42:58.430Z,99575.78
2022-08-04T20:45:55.623Z,99538.66
2022-08-04T20:48:16.606Z,99615.19
2022-08-04T20:50:46.754Z,99625.63
2022-08-04T20:53:17.068Z,99463.47
2022-08-04T20:55:54.807Z,99521.81
2022-08-04T20:58:27.631Z,99561.94
2022-08-04T21:00:57.127Z,99531.81
2022-08-04T21:03:49.840Z,99607.03
2022-08-04T21:06:15.718Z,99567.06
2022-08-04T21:08:56.828Z,99539.09
2022-08-04T21:11:32.626Z,99571.47
2022-08-04T21:14:01.300Z,99464.28
2022-08-04T21:16:55.700Z,99554.16
2022-08-04T21:19:22.480Z,99547.44
2022-08-04T21:21:53.552Z,99628.78
2022-08-04T21:24:26.289Z,99538.22
2022-08-04T21:26:57.258Z,99630.81
2022-08-04T21:29:34.704Z,99492.31
2022-08-04T21:32:05.868Z,99616.34
2022-08-04T21:37:24.699Z,99642.50
2022-08-04T21:40:15.281Z,99621.38
2022-08-04T21:42:49.954Z,99644.47
2022-08-04T21:45:21.551Z,99514.66
2022-08-04T21:47:51.018Z,99639.88
2022-08-04T21:50:20.762Z,99648.50
2022-08-04T21:52:49.954Z,99449.63
2022-08-04T21:55:19.145Z,99537.78
2022-08-04T21:57:49.489Z,99616.97
2022-08-04T22:00:20.190Z,99504.69
2022-08-04T22:02:53.291Z,99496.50
2022-08-04T22:05:23.274Z,99534.56
2022-08-04T22:07:52.023Z,99547.25
2022-08-04T22:10:32.303Z,99541.19
2022-08-04T22:13:06.742Z,99549.31
2022-08-04T22:16:04.523Z,99561.72
2022-08-04T22:18:24.369Z,99646.09
2022-08-04T22:20:56.792Z,99645.19
2022-08-04T22:23:26.405Z,99643.16
2022-08-04T22:25:56.015Z,99539.31
2022-08-04T22:28:28.319Z,99653.38
2022-08-04T22:30:57.909Z,99557.50
2022-08-04T22:33:53.941Z,99583.06
2022-08-04T22:36:17.726Z,99601.00
2022-08-04T22:38:48.547Z,99609.38
2022-08-04T22:41:21.923Z,99535.56
2022-08-04T22:44:02.505Z,99571.25
2022-08-04T22:46:31.749Z,99623.59
2022-08-04T22:48:59.864Z,99519.09
2022-08-04T22:51:29.590Z,99557.53
2022-08-04T22:53:58.268Z,99629.00
2022-08-04T22:56:38.031Z,99611.41
2022-08-04T22:59:07.007Z,99464.56
2022-08-04T23:01:59.242Z,99657.09
2022-08-04T23:04:27.767Z,99658.16
2022-08-04T23:06:57.219Z,99653.47
2022-08-04T23:09:26.980Z,99593.75
2022-08-04T23:12:28.899Z,99582.78
2022-08-04T23:14:58.810Z,99594.25
2022-08-04T23:17:28.607Z,99546.94
2022-08-04T23:19:59.635Z,99655.19
2022-08-04T23:22:41.297Z,99604.91
2022-08-04T23:25:16.019Z,99657.66
2022-08-04T23:27:50.798Z,99654.09
2022-08-04T23:30:21.879Z,99656.16
2022-08-04T23:32:54.238Z,99454.00
2022-08-04T23:35:23.053Z,99647.44
2022-08-04T23:37:57.014Z,99623.81
2022-08-04T23:40:34.046Z,99609.66
2022-08-04T23:43:12.142Z,99573.97
2022-08-04T23:46:07.286Z,99654.22
2022-08-04T23:48:34.310Z,99662.41
2022-08-04T23:51:14.542Z,99655.47
2022-08-04T23:54:02.253Z,99636.75
2022-08-04T23:56:32.959Z,99595.09
2022-08-04T23:59:03.405Z,99670.00
